sensor_id;sensor_type;location;lat;lon;timestamp;pressure;altitude;pressure_sealevel;temperature;humidity
63115;BME280;49208;50.874;6.466;2022-09-09T00:00:55;99753.25;;;14.67;93.20
63115;BME280;49208;50.874;6.466;2022-09-09T00:03:44;99745.03;;;14.70;92.96
63115;BME280;49208;50.874;6.466;2022-09-09T00:06:21;99755.66;;;14.71;92.95
63115;BME280;49208;50.874;6.466;2022-09-09T00:09:02;99752.88;;;14.73;93.21
63115;BME280;49208;50.874;6.466;2022-09-09T00:11:53;99743.97;;;14.72;92.94
63115;BME280;49208;50.874;6.466;2022-09-09T00:14:54;99745.97;;;14.69;92.67
63115;BME280;49208;50.874;6.466;2022-09-09T00:17:36;99742.75;;;14.64;93.07
63115;BME280;49208;50.874;6.466;2022-09-09T00:22:45;99747.66;;;14.57;92.94
63115;BME280;49208;50.874;6.466;2022-09-09T00:25:23;99748.00;;;14.51;92.80
63115;BME280;49208;50.874;6.466;2022-09-09T00:27:54;99749.31;;;14.44;93.11
63115;BME280;49208;50.874;6.466;2022-09-09T00:30:32;99747.78;;;14.40;93.26
63115;BME280;49208;50.874;6.466;2022-09-09T00:33:01;99739.97;;;14.37;92.75
63115;BME280;49208;50.874;6.466;2022-09-09T00:35:31;99745.31;;;14.37;93.20
63115;BME280;49208;50.874;6.466;2022-09-09T00:38:10;99740.81;;;14.37;91.80
63115;BME280;49208;50.874;6.466;2022-09-09T00:40:45;99736.53;;;14.34;90.80
63115;BME280;49208;50.874;6.466;2022-09-09T00:57:38;99733.38;;;14.42;88.42
63115;BME280;49208;50.874;6.466;2022-09-09T01:00:17;99733.47;;;14.41;88.47
63115;BME280;49208;50.874;6.466;2022-09-09T01:06:26;99740.25;;;14.32;89.74
63115;BME280;49208;50.874;6.466;2022-09-09T01:09:02;99741.66;;;14.23;89.65
63115;BME280;49208;50.874;6.466;2022-09-09T01:19:55;99731.81;;;13.95;91.14
63115;BME280;49208;50.874;6.466;2022-09-09T01:27:41;99738.97;;;13.80;92.03
63115;BME280;49208;50.874;6.466;2022-09-09T01:30:11;99732.09;;;13.76;92.06
63115;BME280;49208;50.874;6.466;2022-09-09T01:32:44;99731.31;;;13.74;92.64
63115;BME280;49208;50.874;6.466;2022-09-09T01:35:41;99738.56;;;13.72;92.85
63115;BME280;49208;50.874;6.466;2022-09-09T01:38:07;99735.00;;;13.71;92.93
63115;BME280;49208;50.874;6.466;2022-09-09T01:40:33;99743.91;;;13.72;93.50
63115;BME280;49208;50.874;6.466;2022-09-09T01:42:59;99741.25;;;13.72;93.68
63115;BME280;49208;50.874;6.466;2022-09-09T01:45:24;99734.06;;;13.72;93.95
63115;BME280;49208;50.874;6.466;2022-09-09T01:47:54;99738.44;;;13.73;94.33
63115;BME280;49208;50.874;6.466;2022-09-09T01:50:21;99740.00;;;13.78;94.57
63115;BME280;49208;50.874;6.466;2022-09-09T01:52:50;99736.28;;;13.80;94.78
63115;BME280;49208;50.874;6.466;2022-09-09T01:55:22;99728.06;;;13.83;94.75
63115;BME280;49208;50.874;6.466;2022-09-09T01:58:06;99733.81;;;13.91;95.03
63115;BME280;49208;50.874;6.466;2022-09-09T02:00:42;99732.22;;;14.03;95.18
63115;BME280;49208;50.874;6.466;2022-09-09T02:03:28;99728.41;;;14.22;94.38
63115;BME280;49208;50.874;6.466;2022-09-09T02:08:40;99725.13;;;14.31;93.10
63115;BME280;49208;50.874;6.466;2022-09-09T02:11:15;99724.97;;;14.34;93.46
63115;BME280;49208;50.874;6.466;2022-09-09T02:13:43;99729.34;;;14.35;93.08
63115;BME280;49208;50.874;6.466;2022-09-09T02:16:21;99726.66;;;14.35;92.97
63115;BME280;49208;50.874;6.466;2022-09-09T02:18:55;99723.06;;;14.36;93.14
63115;BME280;49208;50.874;6.466;2022-09-09T02:21:23;99731.84;;;14.38;92.99
63115;BME280;49208;50.874;6.466;2022-09-09T02:23:50;99729.81;;;14.42;93.11
63115;BME280;49208;50.874;6.466;2022-09-09T02:26:17;99735.00;;;14.45;92.99
63115;BME280;49208;50.874;6.466;2022-09-09T02:28:49;99729.53;;;14.46;92.93
63115;BME280;49208;50.874;6.466;2022-09-09T02:31:17;99725.59;;;14.52;92.80
63115;BME280;49208;50.874;6.466;2022-09-09T02:33:46;99725.41;;;14.55;92.54
63115;BME280;49208;50.874;6.466;2022-09-09T02:36:14;99719.72;;;14.61;92.14
63115;BME280;49208;50.874;6.466;2022-09-09T02:38:45;99721.31;;;14.64;92.09
63115;BME280;49208;50.874;6.466;2022-09-09T02:41:16;99713.06;;;14.67;92.03
63115;BME280;49208;50.874;6.466;2022-09-09T02:43:42;99718.34;;;14.68;91.58
63115;BME280;49208;50.874;6.466;2022-09-09T02:49:03;99717.50;;;14.68;91.62
63115;BME280;49208;50.874;6.466;2022-09-09T02:51:53;99708.38;;;14.70;91.93
63115;BME280;49208;50.874;6.466;2022-09-09T02:54:27;99712.97;;;14.68;91.93
63115;BME280;49208;50.874;6.466;2022-09-09T02:57:04;99710.31;;;14.68;91.58
63115;BME280;49208;50.874;6.466;2022-09-09T02:59:30;99712.22;;;14.66;91.71
63115;BME280;49208;50.874;6.466;2022-09-09T03:01:56;99715.00;;;14.65;91.99
63115;BME280;49208;50.874;6.466;2022-09-09T03:04:21;99709.63;;;14.65;91.84
63115;BME280;49208;50.874;6.466;2022-09-09T03:06:47;99706.09;;;14.64;91.58
63115;BME280;49208;50.874;6.466;2022-09-09T03:09:12;99711.47;;;14.64;91.60
63115;BME280;49208;50.874;6.466;2022-09-09T03:11:38;99713.19;;;14.65;91.87
63115;BME280;49208;50.874;6.466;2022-09-09T03:14:03;99712.97;;;14.68;91.74
63115;BME280;49208;50.874;6.466;2022-09-09T03:16:29;99717.28;;;14.71;91.83
63115;BME280;49208;50.874;6.466;2022-09-09T03:18:55;99719.88;;;14.72;92.03
63115;BME280;49208;50.874;6.466;2022-09-09T03:21:20;99715.19;;;14.76;91.67
63115;BME280;49208;50.874;6.466;2022-09-09T03:23:46;99721.28;;;14.78;92.00
63115;BME280;49208;50.874;6.466;2022-09-09T03:26:12;99717.47;;;14.82;91.88
63115;BME280;49208;50.874;6.466;2022-09-09T03:28:39;99713.72;;;14.85;91.40
63115;BME280;49208;50.874;6.466;2022-09-09T03:31:06;99716.38;;;14.85;91.07
63115;BME280;49208;50.874;6.466;2022-09-09T03:33:31;99718.13;;;14.86;91.35
63115;BME280;49208;50.874;6.466;2022-09-09T03:35:57;99714.56;;;14.85;91.30
63115;BME280;49208;50.874;6.466;2022-09-09T03:38:23;99709.31;;;14.84;91.50
63115;BME280;49208;50.874;6.466;2022-09-09T03:40:56;99705.88;;;14.82;91.21
63115;BME280;49208;50.874;6.466;2022-09-09T03:43:23;99714.78;;;14.82;91.34
63115;BME280;49208;50.874;6.466;2022-09-09T03:45:49;99713.03;;;14.81;91.21
63115;BME280;49208;50.874;6.466;2022-09-09T03:48:18;99710.38;;;14.81;91.22
63115;BME280;49208;50.874;6.466;2022-09-09T03:50:48;99712.19;;;14.81;91.28
63115;BME280;49208;50.874;6.466;2022-09-09T03:53:15;99717.47;;;14.82;91.43
63115;BME280;49208;50.874;6.466;2022-09-09T03:55:45;99721.00;;;14.83;91.62
63115;BME280;49208;50.874;6.466;2022-09-09T03:58:12;99717.38;;;14.84;91.68
63115;BME280;49208;50.874;6.466;2022-09-09T04:00:38;99717.38;;;14.84;91.40
63115;BME280;49208;50.874;6.466;2022-09-09T04:03:05;99715.53;;;14.84;91.36
63115;BME280;49208;50.874;6.466;2022-09-09T04:05:31;99719.06;;;14.85;91.39
63115;BME280;49208;50.874;6.466;2022-09-09T04:07:59;99720.91;;;14.84;91.68
63115;BME280;49208;50.874;6.466;2022-09-09T04:10:24;99713.63;;;14.86;91.59
63115;BME280;49208;50.874;6.466;2022-09-09T04:12:49;99716.38;;;14.85;91.68
63115;BME280;49208;50.874;6.466;2022-09-09T04:15:15;99715.44;;;14.86;91.49
63115;BME280;49208;50.874;6.466;2022-09-09T04:17:40;99712.66;;;14.87;91.94
63115;BME280;49208;50.874;6.466;2022-09-09T04:20:06;99710.81;;;14.88;91.90
63115;BME280;49208;50.874;6.466;2022-09-09T04:22:36;99709.03;;;14.88;91.72
63115;BME280;49208;50.874;6.466;2022-09-09T04:25:04;99700.97;;;14.88;91.66
63115;BME280;49208;50.874;6.466;2022-09-09T04:27:31;99711.47;;;14.91;91.47
63115;BME280;49208;50.874;6.466;2022-09-09T04:29:56;99698.00;;;14.93;91.39
63115;BME280;49208;50.874;6.466;2022-09-09T04:32:22;99704.03;;;14.97;91.31
63115;BME280;49208;50.874;6.466;2022-09-09T04:34:48;99701.22;;;14.98;91.14
63115;BME280;49208;50.874;6.466;2022-09-09T04:37:14;99710.00;;;15.00;90.88
63115;BME280;49208;50.874;6.466;2022-09-09T04:39:39;99707.34;;;15.00;90.89
63115;BME280;49208;50.874;6.466;2022-09-09T04:42:04;99709.94;;;15.02;90.91
63115;BME280;49208;50.874;6.466;2022-09-09T04:44:30;99701.78;;;15.03;90.93
63115;BME280;49208;50.874;6.466;2022-09-09T04:46:55;99709.63;;;15.06;89.84
63115;BME280;49208;50.874;6.466;2022-09-09T04:49:21;99706.00;;;15.07;89.98
63115;BME280;49208;50.874;6.466;2022-09-09T04:51:48;99712.09;;;15.09;89.86
63115;BME280;49208;50.874;6.466;2022-09-09T04:54:14;99702.25;;;15.10;89.53
63115;BME280;49208;50.874;6.466;2022-09-09T04:56:39;99704.81;;;15.11;89.48
63115;BME280;49208;50.874;6.466;2022-09-09T04:59:06;99709.22;;;15.12;89.60
63115;BME280;49208;50.874;6.466;2022-09-09T05:01:32;99708.25;;;15.13;89.62
63115;BME280;49208;50.874;6.466;2022-09-09T05:03:57;99706.34;;;15.15;89.80
63115;BME280;49208;50.874;6.466;2022-09-09T05:06:23;99709.03;;;15.15;89.71
63115;BME280;49208;50.874;6.466;2022-09-09T05:08:49;99717.91;;;15.16;89.19
63115;BME280;49208;50.874;6.466;2022-09-09T05:13:46;99715.13;;;15.18;89.38
63115;BME280;49208;50.874;6.466;2022-09-09T05:16:13;99714.06;;;15.20;88.86
63115;BME280;49208;50.874;6.466;2022-09-09T05:18:39;99712.38;;;15.19;89.15
63115;BME280;49208;50.874;6.466;2022-09-09T05:21:05;99711.38;;;15.20;89.10
63115;BME280;49208;50.874;6.466;2022-09-09T05:23:32;99715.59;;;15.24;89.12
63115;BME280;49208;50.874;6.466;2022-09-09T05:25:59;99709.28;;;15.25;88.89
63115;BME280;49208;50.874;6.466;2022-09-09T05:28:25;99713.66;;;15.26;88.89
63115;BME280;49208;50.874;6.466;2022-09-09T05:30:58;99714.50;;;15.27;88.70
63115;BME280;49208;50.874;6.466;2022-09-09T05:33:25;99711.75;;;15.28;89.17
63115;BME280;49208;50.874;6.466;2022-09-09T05:36:03;99717.00;;;15.30;88.64
63115;BME280;49208;50.874;6.466;2022-09-09T05:38:30;99722.38;;;15.30;88.32
63115;BME280;49208;50.874;6.466;2022-09-09T05:40:56;99720.53;;;15.30;88.55
63115;BME280;49208;50.874;6.466;2022-09-09T05:43:22;99720.53;;;15.30;88.09
63115;BME280;49208;50.874;6.466;2022-09-09T05:45:58;99729.34;;;15.32;88.06
63115;BME280;49208;50.874;6.466;2022-09-09T05:48:28;99730.94;;;15.35;88.10
63115;BME280;49208;50.874;6.466;2022-09-09T05:50:54;99724.75;;;15.34;87.94
63115;BME280;49208;50.874;6.466;2022-09-09T05:53:19;99724.75;;;15.34;87.71
63115;BME280;49208;50.874;6.466;2022-09-09T05:55:45;99726.66;;;15.32;87.46
63115;BME280;49208;50.874;6.466;2022-09-09T05:58:10;99731.25;;;15.30;87.54
63115;BME280;49208;50.874;6.466;2022-09-09T06:00:36;99727.72;;;15.30;87.43
63115;BME280;49208;50.874;6.466;2022-09-09T06:03:03;99732.13;;;15.31;86.52
63115;BME280;49208;50.874;6.466;2022-09-09T06:05:29;99727.41;;;15.34;86.51
63115;BME280;49208;50.874;6.466;2022-09-09T06:07:54;99723.34;;;15.42;86.12
63115;BME280;49208;50.874;6.466;2022-09-09T06:10:20;99721.66;;;15.53;85.80
63115;BME280;49208;50.874;6.466;2022-09-09T06:12:45;99724.59;;;15.63;85.28
63115;BME280;49208;50.874;6.466;2022-09-09T06:15:11;99725.50;;;15.76;84.85
63115;BME280;49208;50.874;6.466;2022-09-09T06:17:36;99718.19;;;15.91;84.06
63115;BME280;49208;50.874;6.466;2022-09-09T06:20:02;99714.56;;;16.05;83.13
63115;BME280;49208;50.874;6.466;2022-09-09T06:22:28;99713.91;;;16.27;82.13
63115;BME280;49208;50.874;6.466;2022-09-09T06:24:53;99721.69;;;16.69;80.81
63115;BME280;49208;50.874;6.466;2022-09-09T06:27:18;99718.72;;;17.22;79.24
63115;BME280;49208;50.874;6.466;2022-09-09T06:29:44;99718.78;;;17.68;75.70
63115;BME280;49208;50.874;6.466;2022-09-09T06:32:09;99712.16;;;18.19;75.93
63115;BME280;49208;50.874;6.466;2022-09-09T06:34:35;99712.91;;;18.55;73.51
63115;BME280;49208;50.874;6.466;2022-09-09T06:37:01;99713.38;;;18.71;72.13
63115;BME280;49208;50.874;6.466;2022-09-09T06:39:27;99714.59;;;18.90;72.09
63115;BME280;49208;50.874;6.466;2022-09-09T06:41:52;99708.94;;;19.04;69.44
63115;BME280;49208;50.874;6.466;2022-09-09T06:44:18;99709.78;;;19.05;68.44
63115;BME280;49208;50.874;6.466;2022-09-09T06:46:44;99707.72;;;19.62;67.37
63115;BME280;49208;50.874;6.466;2022-09-09T06:49:13;99712.13;;;20.97;63.39
63115;BME280;49208;50.874;6.466;2022-09-09T06:51:38;99706.97;;;22.58;54.50
63115;BME280;49208;50.874;6.466;2022-09-09T06:54:12;99710.63;;;24.02;51.65
63115;BME280;49208;50.874;6.466;2022-09-09T06:56:39;99710.47;;;25.07;48.41
63115;BME280;49208;50.874;6.466;2022-09-09T06:59:09;99702.56;;;26.12;44.58
63115;BME280;49208;50.874;6.466;2022-09-09T07:01:37;99706.22;;;26.91;43.48
63115;BME280;49208;50.874;6.466;2022-09-09T07:04:04;99701.28;;;27.26;40.44
63115;BME280;49208;50.874;6.466;2022-09-09T07:06:34;99707.81;;;27.48;41.25
63115;BME280;49208;50.874;6.466;2022-09-09T07:09:02;99718.31;;;28.20;38.11
63115;BME280;49208;50.874;6.466;2022-09-09T07:11:31;99715.00;;;28.70;36.87
63115;BME280;49208;50.874;6.466;2022-09-09T07:13:58;99714.56;;;28.66;37.37
63115;BME280;49208;50.874;6.466;2022-09-09T07:16:25;99712.69;;;29.03;37.08
63115;BME280;49208;50.874;6.466;2022-09-09T07:18:53;99718.72;;;29.50;36.88
63115;BME280;49208;50.874;6.466;2022-09-09T07:21:23;99720.88;;;29.97;35.31
63115;BME280;49208;50.874;6.466;2022-09-09T07:23:49;99718.72;;;30.42;34.92
63115;BME280;49208;50.874;6.466;2022-09-09T07:26:20;99717.34;;;30.67;33.30
63115;BME280;49208;50.874;6.466;2022-09-09T07:28:46;99720.31;;;30.09;34.31
63115;BME280;49208;50.874;6.466;2022-09-09T07:31:20;99728.75;;;28.02;36.52
63115;BME280;49208;50.874;6.466;2022-09-09T07:33:47;99726.25;;;26.28;38.67
63115;BME280;49208;50.874;6.466;2022-09-09T07:38:51;99727.53;;;23.88;45.32
63115;BME280;49208;50.874;6.466;2022-09-09T07:41:29;99728.06;;;23.02;47.24
63115;BME280;49208;50.874;6.466;2022-09-09T07:43:55;99724.72;;;22.43;49.99
63115;BME280;49208;50.874;6.466;2022-09-09T07:46:23;99728.22;;;22.06;52.85
63115;BME280;49208;50.874;6.466;2022-09-09T07:48:50;99727.59;;;21.65;52.95
63115;BME280;49208;50.874;6.466;2022-09-09T07:51:25;99723.72;;;21.48;52.54
63115;BME280;49208;50.874;6.466;2022-09-09T07:53:56;99721.03;;;21.48;52.78
63115;BME280;49208;50.874;6.466;2022-09-09T07:56:26;99719.59;;;21.73;53.70
63115;BME280;49208;50.874;6.466;2022-09-09T07:58:53;99721.38;;;22.31;51.85
63115;BME280;49208;50.874;6.466;2022-09-09T08:01:31;99722.13;;;22.51;51.04
63115;BME280;49208;50.874;6.466;2022-09-09T08:04:02;99723.44;;;22.47;50.19
63115;BME280;49208;50.874;6.466;2022-09-09T08:06:34;99723.38;;;22.29;50.03
63115;BME280;49208;50.874;6.466;2022-09-09T08:08:59;99727.00;;;21.90;50.21
63115;BME280;49208;50.874;6.466;2022-09-09T08:11:27;99728.28;;;21.47;51.60
63115;BME280;49208;50.874;6.466;2022-09-09T08:13:54;99734.91;;;21.04;52.52
63115;BME280;49208;50.874;6.466;2022-09-09T08:16:22;99729.41;;;20.75;52.91
63115;BME280;49208;50.874;6.466;2022-09-09T08:18:49;99735.03;;;20.52;54.16
63115;BME280;49208;50.874;6.466;2022-09-09T08:21:16;99733.44;;;20.50;54.24
63115;BME280;49208;50.874;6.466;2022-09-09T08:23:44;99736.28;;;20.48;55.08
63115;BME280;49208;50.874;6.466;2022-09-09T08:26:14;99743.50;;;20.69;54.13
63115;BME280;49208;50.874;6.466;2022-09-09T08:28:41;99739.97;;;21.87;53.37
63115;BME280;49208;50.874;6.466;2022-09-09T08:31:15;99739.34;;;22.59;48.66
63115;BME280;49208;50.874;6.466;2022-09-09T08:33:42;99745.25;;;22.45;47.86
63115;BME280;49208;50.874;6.466;2022-09-09T08:36:11;99746.22;;;21.97;50.36
63115;BME280;49208;50.874;6.466;2022-09-09T08:38:37;99740.84;;;21.48;51.06
63115;BME280;49208;50.874;6.466;2022-09-09T08:43:47;99737.03;;;20.91;52.35
63115;BME280;49208;50.874;6.466;2022-09-09T08:46:24;99750.31;;;20.63;53.96
63115;BME280;49208;50.874;6.466;2022-09-09T08:49:03;99746.41;;;20.56;55.66
63115;BME280;49208;50.874;6.466;2022-09-09T08:51:31;99759.78;;;20.57;56.32
63115;BME280;49208;50.874;6.466;2022-09-09T08:54:00;99757.03;;;20.48;54.38
63115;BME280;49208;50.874;6.466;2022-09-09T08:56:27;99760.81;;;20.35;55.99
63115;BME280;49208;50.874;6.466;2022-09-09T08:58:56;99767.81;;;20.17;55.70
63115;BME280;49208;50.874;6.466;2022-09-09T09:09:42;99755.41;;;20.05;55.24
63115;BME280;49208;50.874;6.466;2022-09-09T09:12:20;99754.88;;;20.11;56.72
63115;BME280;49208;50.874;6.466;2022-09-09T09:14:48;99753.06;;;20.42;56.09
63115;BME280;49208;50.874;6.466;2022-09-09T09:17:17;99749.44;;;20.63;54.94
63115;BME280;49208;50.874;6.466;2022-09-09T09:19:44;99749.69;;;20.90;54.82
63115;BME280;49208;50.874;6.466;2022-09-09T09:24:55;99746.66;;;21.83;54.31
63115;BME280;49208;50.874;6.466;2022-09-09T09:27:29;99757.72;;;22.38;51.94
63115;BME280;49208;50.874;6.466;2022-09-09T09:29:56;99744.19;;;22.28;49.62
63115;BME280;49208;50.874;6.466;2022-09-09T09:32:24;99749.94;;;21.96;49.71
63115;BME280;49208;50.874;6.466;2022-09-09T09:34:55;99761.09;;;21.64;51.13
63115;BME280;49208;50.874;6.466;2022-09-09T09:37:32;99762.66;;;21.56;52.75
63115;BME280;49208;50.874;6.466;2022-09-09T09:40:11;99766.06;;;21.49;51.94
63115;BME280;49208;50.874;6.466;2022-09-09T09:42:38;99759.66;;;21.59;51.44
63115;BME280;49208;50.874;6.466;2022-09-09T09:45:34;99756.09;;;21.88;51.77
63115;BME280;49208;50.874;6.466;2022-09-09T09:48:02;99754.50;;;21.95;50.22
63115;BME280;49208;50.874;6.466;2022-09-09T09:50:29;99757.19;;;22.05;51.19
63115;BME280;49208;50.874;6.466;2022-09-09T09:52:57;99762.91;;;21.83;50.61
63115;BME280;49208;50.874;6.466;2022-09-09T09:55:23;99750.25;;;21.64;51.40
63115;BME280;49208;50.874;6.466;2022-09-09T09:57:49;99753.81;;;21.64;52.65
63115;BME280;49208;50.874;6.466;2022-09-09T10:00:22;99750.66;;;21.98;52.73
63115;BME280;49208;50.874;6.466;2022-09-09T10:02:48;99747.38;;;22.04;52.40
63115;BME280;49208;50.874;6.466;2022-09-09T10:05:19;99753.25;;;22.47;52.88
63115;BME280;49208;50.874;6.466;2022-09-09T10:07:46;99742.72;;;22.99;51.03
63115;BME280;49208;50.874;6.466;2022-09-09T10:10:28;99751.75;;;23.27;49.91
63115;BME280;49208;50.874;6.466;2022-09-09T10:13:11;99751.31;;;23.22;49.36
63115;BME280;49208;50.874;6.466;2022-09-09T10:34:52;99743.41;;;21.59;51.13
63115;BME280;49208;50.874;6.466;2022-09-09T10:40:13;99749.41;;;20.93;51.53
63115;BME280;49208;50.874;6.466;2022-09-09T10:42:42;99758.88;;;20.68;51.15
63115;BME280;49208;50.874;6.466;2022-09-09T10:45:20;99751.19;;;20.43;51.83
63115;BME280;49208;50.874;6.466;2022-09-09T10:48:05;99742.13;;;20.23;51.85
63115;BME280;49208;50.874;6.466;2022-09-09T10:55:43;99747.03;;;20.38;53.83
63115;BME280;49208;50.874;6.466;2022-09-09T10:58:17;99748.25;;;20.55;54.25
63115;BME280;49208;50.874;6.466;2022-09-09T11:00:52;99746.19;;;20.69;52.97
63115;BME280;49208;50.874;6.466;2022-09-09T11:03:22;99740.66;;;20.70;52.96
63115;BME280;49208;50.874;6.466;2022-09-09T11:05:54;99746.06;;;20.70;52.90
63115;BME280;49208;50.874;6.466;2022-09-09T11:08:25;99734.28;;;20.71;52.73
63115;BME280;49208;50.874;6.466;2022-09-09T11:11:04;99740.66;;;20.70;52.66
63115;BME280;49208;50.874;6.466;2022-09-09T11:18:41;99737.00;;;20.50;52.77
63115;BME280;49208;50.874;6.466;2022-09-09T11:21:17;99747.91;;;20.39;53.96
63115;BME280;49208;50.874;6.466;2022-09-09T11:23:52;99743.50;;;20.38;55.99
63115;BME280;49208;50.874;6.466;2022-09-09T11:26:30;99748.13;;;20.57;54.74
63115;BME280;49208;50.874;6.466;2022-09-09T11:29:08;99748.91;;;20.69;54.75
63115;BME280;49208;50.874;6.466;2022-09-09T11:34:45;99738.84;;;20.81;54.43
63115;BME280;49208;50.874;6.466;2022-09-09T11:40:14;99747.38;;;20.76;54.15
63115;BME280;49208;50.874;6.466;2022-09-09T11:42:41;99736.25;;;20.79;55.03
63115;BME280;49208;50.874;6.466;2022-09-09T11:45:26;99740.44;;;20.93;55.59
63115;BME280;49208;50.874;6.466;2022-09-09T11:47:58;99734.06;;;21.04;55.24
63115;BME280;49208;50.874;6.466;2022-09-09T11:52:50;99744.47;;;20.98;54.51
63115;BME280;49208;50.874;6.466;2022-09-09T11:55:31;99749.69;;;20.90;53.60
63115;BME280;49208;50.874;6.466;2022-09-09T11:57:59;99742.41;;;20.81;54.16
63115;BME280;49208;50.874;6.466;2022-09-09T12:03:04;99786.28;;;20.33;57.06
63115;BME280;49208;50.874;6.466;2022-09-09T12:05:42;99790.25;;;19.87;63.09
63115;BME280;49208;50.874;6.466;2022-09-09T12:08:10;99777.72;;;19.42;66.71
63115;BME280;49208;50.874;6.466;2022-09-09T12:10:56;99769.00;;;19.06;70.78
63115;BME280;49208;50.874;6.466;2022-09-09T12:13:24;99771.34;;;18.88;72.16
63115;BME280;49208;50.874;6.466;2022-09-09T12:15:55;99774.66;;;18.92;73.26
63115;BME280;49208;50.874;6.466;2022-09-09T12:18:26;99780.06;;;19.03;74.53
63115;BME280;49208;50.874;6.466;2022-09-09T12:21:07;99779.13;;;19.25;74.45
63115;BME280;49208;50.874;6.466;2022-09-09T12:23:51;99767.84;;;19.64;75.25
63115;BME280;49208;50.874;6.466;2022-09-09T12:32:00;99757.06;;;20.27;69.79
63115;BME280;49208;50.874;6.466;2022-09-09T12:34:49;99759.38;;;20.31;66.35
63115;BME280;49208;50.874;6.466;2022-09-09T12:39:56;99761.16;;;20.21;62.41
63115;BME280;49208;50.874;6.466;2022-09-09T12:42:23;99760.00;;;20.14;64.70
63115;BME280;49208;50.874;6.466;2022-09-09T12:45:00;99763.81;;;20.11;65.50
63115;BME280;49208;50.874;6.466;2022-09-09T12:47:38;99757.88;;;20.17;64.80
63115;BME280;49208;50.874;6.466;2022-09-09T12:50:22;99759.78;;;20.27;63.33
63115;BME280;49208;50.874;6.466;2022-09-09T12:52:49;99757.81;;;20.29;63.04
63115;BME280;49208;50.874;6.466;2022-09-09T12:55:18;99749.44;;;20.32;61.48
63115;BME280;49208;50.874;6.466;2022-09-09T12:57:48;99741.47;;;20.30;63.75
63115;BME280;49208;50.874;6.466;2022-09-09T13:00:20;99738.28;;;20.25;62.43
63115;BME280;49208;50.874;6.466;2022-09-09T13:02:52;99733.47;;;20.29;63.08
63115;BME280;49208;50.874;6.466;2022-09-09T13:05:24;99734.06;;;20.32;62.94
63115;BME280;49208;50.874;6.466;2022-09-09T13:07:50;99730.28;;;20.45;61.93
63115;BME280;49208;50.874;6.466;2022-09-09T13:10:28;99722.22;;;20.54;62.26
63115;BME280;49208;50.874;6.466;2022-09-09T13:12:55;99732.53;;;20.70;62.16
63115;BME280;49208;50.874;6.466;2022-09-09T13:15:26;99718.75;;;20.83;60.01
63115;BME280;49208;50.874;6.466;2022-09-09T13:17:58;99727.22;;;20.90;59.95
63115;BME280;49208;50.874;6.466;2022-09-09T13:20:26;99718.09;;;20.91;60.08
63115;BME280;49208;50.874;6.466;2022-09-09T13:22:53;99720.91;;;20.89;60.55
63115;BME280;49208;50.874;6.466;2022-09-09T13:25:27;99718.38;;;20.88;60.83
63115;BME280;49208;50.874;6.466;2022-09-09T13:28:04;99704.56;;;20.91;58.82
63115;BME280;49208;50.874;6.466;2022-09-09T13:30:32;99702.00;;;20.99;58.54
63115;BME280;49208;50.874;6.466;2022-09-09T13:35:47;99697.50;;;21.19;58.18
63115;BME280;49208;50.874;6.466;2022-09-09T13:38:15;99690.47;;;21.16;58.54
63115;BME280;49208;50.874;6.466;2022-09-09T13:40:40;99682.22;;;21.08;56.64
63115;BME280;49208;50.874;6.466;2022-09-09T13:43:21;99679.66;;;21.07;56.91
63115;BME280;49208;50.874;6.466;2022-09-09T13:45:59;99680.53;;;21.07;57.18
63115;BME280;49208;50.874;6.466;2022-09-09T13:48:24;99698.03;;;21.03;57.49
63115;BME280;49208;50.874;6.466;2022-09-09T13:53:57;99710.00;;;21.20;57.90
63115;BME280;49208;50.874;6.466;2022-09-09T13:56:24;99707.03;;;21.13;57.39
63115;BME280;49208;50.874;6.466;2022-09-09T13:58:49;99714.41;;;21.02;56.54
63115;BME280;49208;50.874;6.466;2022-09-09T14:01:14;99722.91;;;20.77;56.57
63115;BME280;49208;50.874;6.466;2022-09-09T14:03:40;99718.81;;;20.52;57.13
63115;BME280;49208;50.874;6.466;2022-09-09T14:06:06;99719.78;;;20.21;58.95
63115;BME280;49208;50.874;6.466;2022-09-09T14:08:32;99726.22;;;19.98;59.61
63115;BME280;49208;50.874;6.466;2022-09-09T14:11:03;99719.72;;;19.90;60.52
63115;BME280;49208;50.874;6.466;2022-09-09T14:13:28;99724.56;;;19.86;63.33
63115;BME280;49208;50.874;6.466;2022-09-09T14:15:53;99724.41;;;19.88;68.04
63115;BME280;49208;50.874;6.466;2022-09-09T14:18:19;99726.59;;;19.94;68.64
63115;BME280;49208;50.874;6.466;2022-09-09T14:20:45;99718.22;;;19.97;67.43
63115;BME280;49208;50.874;6.466;2022-09-09T14:23:11;99719.94;;;19.98;67.33
63115;BME280;49208;50.874;6.466;2022-09-09T14:25:42;99716.66;;;19.94;67.83
63115;BME280;49208;50.874;6.466;2022-09-09T14:28:10;99716.84;;;19.82;68.29
63115;BME280;49208;50.874;6.466;2022-09-09T14:30:40;99717.97;;;19.79;68.70
63115;BME280;49208;50.874;6.466;2022-09-09T14:33:07;99720.97;;;19.86;70.26
63115;BME280;49208;50.874;6.466;2022-09-09T14:35:33;99715.97;;;20.02;70.46
63115;BME280;49208;50.874;6.466;2022-09-09T14:37:59;99715.50;;;20.18;67.77
63115;BME280;49208;50.874;6.466;2022-09-09T14:40:26;99715.56;;;20.28;68.10
63115;BME280;49208;50.874;6.466;2022-09-09T14:42:52;99716.59;;;20.36;67.80
63115;BME280;49208;50.874;6.466;2022-09-09T14:45:18;99728.84;;;20.41;67.07
63115;BME280;49208;50.874;6.466;2022-09-09T14:47:44;99733.34;;;20.30;64.06
63115;BME280;49208;50.874;6.466;2022-09-09T14:50:10;99718.75;;;20.12;63.26
63115;BME280;49208;50.874;6.466;2022-09-09T14:52:37;99727.91;;;19.99;64.08
63115;BME280;49208;50.874;6.466;2022-09-09T14:55:03;99724.59;;;19.96;66.86
63115;BME280;49208;50.874;6.466;2022-09-09T14:57:28;99718.66;;;20.02;67.58
63115;BME280;49208;50.874;6.466;2022-09-09T14:59:54;99719.59;;;20.12;65.71
63115;BME280;49208;50.874;6.466;2022-09-09T15:02:19;99722.28;;;20.12;65.38
63115;BME280;49208;50.874;6.466;2022-09-09T15:04:44;99724.03;;;20.13;66.36
63115;BME280;49208;50.874;6.466;2022-09-09T15:07:11;99722.44;;;20.11;65.95
63115;BME280;49208;50.874;6.466;2022-09-09T15:09:36;99726.78;;;20.02;65.02